Aérodrome :
LOGIN :

S'inscrire | Disclaimer

   EN    FR    IT 

 










Légende :    VFR   VFR Marginal   IFR   IFR Intensif   IFR Très Intensif
Visi : 
Plafond : 
>= 8 km
>= 3000ft
5 à 8 km
1000 à 3000 ft
1500m à 5 km
500 à 1000 ft
800 à 1500m
200 à 500 ft
< 800m
< 200 ft
Symboles :   Orages  Brouillard  Fortes neiges  Fortes précipitations  Vent > 20 kt
SIGMETs :   Divers  Orages  Givrage  Turbulence  Onde Orograph.  Cendres Volcan.






- Altitude de l'aérodrome : 158 ft
- Code IATA : QAR


EHDL - Deelen Airbase

DERNIER METAR :
  • 102132Z AUTO 19018KT 140V250 9999 FEW021 OVC025 06/00 Q1011 BLU

METARs EXPIRÉS :
  • 102125Z AUTO 18016KT 110V230 9999 FEW021 OVC029 06/00 Q1011 BLU
  • 102055Z AUTO 19019KT 120V250 9999 FEW027 OVC033 06/00 Q1012 BLU
  • 102025Z AUTO 18018KT 130V240 9999 OVC039 06/00 Q1012 BLU
  • 101955Z AUTO 18017KT 130V230 9999 OVC049 06/01 Q1013 BLU
  • 101925Z AUTO 18017KT 120V230 9999 -DZ FEW047 BKN052 BKN059 05/01 Q1013 BLU
  • 101855Z AUTO 18016KT 110V230 9999 OVC063 05/01 Q1014 BLU

TAF TAF EHDL
Valide du 10 à 18h jusqu'au 11 à 06h UTC


101728Z 1018/1106 18017G30KT 9999 FEW045 BKN080
BECMG 1023/1102 SCT018 BKN020
BECMG 1101/1104 21010KT
TEMPO 1101/1106 4500 -RADZ SCT012 BKN015
PROB40
TEMPO 1104/1106 2500 DZRA SCT008 BKN012



MET'MAP, la Météo Aéronautique d'un coup d'oeil ! - Copyright ORBIFLY Décembre 2007 - Disclaimer

ORBIFLY MET'MAP TEAM :

Programmation & Développement : Alexandra Zaïnal
Sur une idée originale de : Baudouin d'Aumeries
Assistance à la programmation : Marc-Olivier Méhu
Soutien technique & logistique : Manuel Goepfert

Contact : metmap@orbifly.com




SOURCES & CREDITS :

   NOAA